createdAt,value
2023-02-28T09:47:51.309Z,64.39
2023-02-28T09:51:01.024Z,63.27
2023-02-28T09:54:02.239Z,62.00
2023-02-28T09:57:09.031Z,61.91
2023-02-28T10:00:19.217Z,61.46
2023-02-28T10:04:38.246Z,61.07
2023-02-28T10:07:48.401Z,58.79
2023-02-28T10:10:54.163Z,57.52
2023-02-28T10:14:05.137Z,56.86
2023-02-28T10:17:16.120Z,56.64
2023-02-28T10:20:37.062Z,55.78
2023-02-28T10:23:55.749Z,55.36
2023-02-28T10:26:58.104Z,49.90
2023-02-28T10:30:20.183Z,48.37
2023-02-28T10:33:45.068Z,46.37
2023-02-28T10:36:47.338Z,43.58
2023-02-28T10:40:00.135Z,41.63
2023-02-28T10:43:35.962Z,38.26
2023-02-28T10:46:39.204Z,37.86
2023-02-28T10:49:51.040Z,37.89
2023-02-28T10:52:54.367Z,36.80
2023-02-28T10:55:58.309Z,35.67
2023-02-28T10:59:14.347Z,35.41
2023-02-28T11:02:55.664Z,34.98
2023-02-28T11:05:58.810Z,33.65
2023-02-28T11:09:07.473Z,33.73
2023-02-28T11:12:11.192Z,33.63
2023-02-28T11:15:19.728Z,34.01
2023-02-28T11:18:28.996Z,34.20
2023-02-28T11:21:51.151Z,34.73
2023-02-28T11:24:56.132Z,35.08
2023-02-28T11:28:02.236Z,34.58
2023-02-28T11:31:28.926Z,34.40
2023-02-28T11:34:40.245Z,34.18
2023-02-28T11:37:49.855Z,33.53
2023-02-28T11:41:18.681Z,33.04
2023-02-28T11:44:37.760Z,32.77
2023-02-28T11:48:17.390Z,32.45
2023-02-28T11:51:36.525Z,32.32
2023-02-28T11:59:00.220Z,32.03
2023-02-28T12:02:42.337Z,31.84
2023-02-28T12:06:32.899Z,31.65
2023-02-28T12:10:16.860Z,31.92
2023-02-28T12:13:35.935Z,31.96
2023-02-28T12:17:14.285Z,32.00
2023-02-28T12:21:07.489Z,31.99
2023-02-28T12:24:41.399Z,31.93
2023-02-28T12:27:43.302Z,32.37
2023-02-28T12:30:45.430Z,32.37
2023-02-28T12:34:07.391Z,32.12
2023-02-28T12:37:10.298Z,32.05
2023-02-28T12:40:15.412Z,31.80
2023-02-28T12:43:20.831Z,31.93
2023-02-28T12:47:01.374Z,31.80
2023-02-28T12:50:18.615Z,32.01
2023-02-28T12:53:41.196Z,32.62
2023-02-28T12:57:00.645Z,32.70
2023-02-28T13:00:05.446Z,32.77
2023-02-28T13:03:33.908Z,33.16
2023-02-28T13:06:35.389Z,33.58
2023-02-28T13:09:38.594Z,34.24
2023-02-28T13:16:13.426Z,34.35
2023-02-28T13:19:23.416Z,34.64
2023-02-28T13:22:54.522Z,35.15
2023-02-28T13:25:58.974Z,35.31
2023-02-28T13:29:29.464Z,34.93
2023-02-28T13:32:45.397Z,35.33
2023-02-28T13:36:00.244Z,35.40
2023-02-28T13:39:09.412Z,35.94
2023-02-28T13:42:10.465Z,36.52
2023-02-28T13:45:17.631Z,37.37
2023-02-28T13:48:31.656Z,37.48
2023-02-28T13:52:04.976Z,37.74
2023-02-28T13:55:49.582Z,38.14
2023-02-28T13:58:55.845Z,37.98
2023-02-28T14:02:16.499Z,38.20
2023-02-28T14:05:33.663Z,38.46
2023-02-28T14:08:42.516Z,39.05
2023-02-28T14:11:55.509Z,39.51
2023-02-28T14:14:56.497Z,40.33
2023-02-28T14:17:58.570Z,40.97
2023-02-28T14:21:02.498Z,41.13
2023-02-28T14:24:17.505Z,41.40
2023-02-28T14:27:41.509Z,42.04
2023-02-28T14:31:14.680Z,42.44
2023-02-28T14:34:40.486Z,42.79
2023-02-28T14:37:50.787Z,43.39
2023-02-28T14:40:53.959Z,44.28
2023-02-28T14:44:03.731Z,44.84
2023-02-28T14:47:16.489Z,45.29
2023-02-28T14:50:32.643Z,45.89
2023-02-28T14:53:33.559Z,46.11
2023-02-28T14:56:55.581Z,46.69
2023-02-28T15:00:02.559Z,47.01
2023-02-28T15:03:08.543Z,46.98
2023-02-28T15:06:11.130Z,47.66
2023-02-28T15:09:32.604Z,48.12
2023-02-28T15:12:33.823Z,48.73
2023-02-28T15:15:40.579Z,49.06
2023-02-28T15:18:59.574Z,49.60
2023-02-28T15:22:03.652Z,50.71
2023-02-28T15:25:05.636Z,51.27
2023-02-28T15:28:09.768Z,52.03
2023-02-28T15:31:17.246Z,52.96
2023-02-28T15:34:19.598Z,54.33
2023-02-28T15:37:43.684Z,55.33
2023-02-28T15:40:51.606Z,56.46
2023-02-28T15:43:55.586Z,57.21
2023-02-28T15:46:57.603Z,58.06
2023-02-28T15:50:07.758Z,58.32
2023-02-28T15:53:10.813Z,58.84
2023-02-28T15:56:19.600Z,59.52
2023-02-28T15:59:21.871Z,60.68
2023-02-28T16:02:33.020Z,61.56
2023-02-28T16:05:38.662Z,62.09
2023-02-28T16:08:38.657Z,62.30
2023-02-28T16:11:38.593Z,62.62
2023-02-28T16:14:39.701Z,63.45
2023-02-28T16:17:43.685Z,63.58
2023-02-28T16:20:44.774Z,63.94
2023-02-28T16:23:47.820Z,64.40
2023-02-28T16:26:48.762Z,65.09
2023-02-28T16:29:49.788Z,66.01
2023-02-28T16:32:50.656Z,66.62
2023-02-28T16:35:53.711Z,66.67
2023-02-28T16:38:54.634Z,67.44
2023-02-28T16:41:58.734Z,67.53
2023-02-28T16:45:01.754Z,67.68
2023-02-28T16:48:04.967Z,67.97
2023-02-28T16:51:06.706Z,68.22
2023-02-28T16:54:06.701Z,68.68
2023-02-28T16:57:15.797Z,69.00
2023-02-28T17:00:18.009Z,69.58
2023-02-28T17:03:27.191Z,70.14
2023-02-28T17:06:37.727Z,70.32
2023-02-28T17:09:43.078Z,70.47
2023-02-28T17:13:14.271Z,71.37
2023-02-28T17:16:14.798Z,71.96
2023-02-28T17:19:18.736Z,72.29
2023-02-28T17:22:21.752Z,72.61
2023-02-28T17:25:21.730Z,73.00
2023-02-28T17:28:23.760Z,73.44
2023-02-28T17:31:25.034Z,73.66
2023-02-28T17:34:28.793Z,73.78
2023-02-28T17:37:29.030Z,73.66
2023-02-28T17:40:32.812Z,74.09
2023-02-28T17:43:32.923Z,74.69
2023-02-28T17:46:40.960Z,75.22
2023-02-28T17:49:40.760Z,75.15
2023-02-28T17:52:43.848Z,75.76
2023-02-28T17:55:43.832Z,75.70
2023-02-28T17:58:43.982Z,76.16
2023-02-28T18:01:44.897Z,76.55
2023-02-28T18:04:46.913Z,76.85
2023-02-28T18:07:47.840Z,76.91
2023-02-28T18:10:55.117Z,76.94
2023-02-28T18:14:07.261Z,77.38
2023-02-28T18:17:14.047Z,77.94
2023-02-28T18:20:24.438Z,78.44
2023-02-28T18:23:27.903Z,78.43
2023-02-28T18:26:31.154Z,78.22
2023-02-28T18:29:42.820Z,78.43
2023-02-28T18:32:42.902Z,79.02
2023-02-28T18:35:45.283Z,79.79
2023-02-28T18:38:46.911Z,79.71
2023-02-28T18:41:48.890Z,80.01
2023-02-28T18:44:51.871Z,80.22
2023-02-28T18:47:52.899Z,80.56
2023-02-28T18:50:59.529Z,80.65
2023-02-28T18:54:01.961Z,81.40
2023-02-28T18:57:21.349Z,81.73
2023-02-28T19:00:29.008Z,82.03
2023-02-28T19:03:34.469Z,82.34
2023-02-28T19:06:38.936Z,82.60
2023-02-28T19:09:35.486Z,83.34
2023-02-28T19:12:51.109Z,83.54
2023-02-28T19:15:56.732Z,83.78
2023-02-28T19:19:02.385Z,84.07
2023-02-28T19:22:07.026Z,84.29
2023-02-28T19:25:12.344Z,84.68
2023-02-28T19:28:16.011Z,85.06
2023-02-28T19:31:25.655Z,84.80
2023-02-28T19:34:35.763Z,84.95
2023-02-28T19:37:37.008Z,84.84
2023-02-28T19:40:52.459Z,85.08
2023-02-28T19:43:57.050Z,85.29
2023-02-28T19:47:00.050Z,85.42
2023-02-28T19:53:25.489Z,85.35
2023-02-28T19:56:37.279Z,85.44
2023-02-28T19:59:40.327Z,85.67
2023-02-28T20:02:59.376Z,85.56
2023-02-28T20:06:21.893Z,85.85
2023-02-28T20:09:23.645Z,86.15
2023-02-28T20:12:29.100Z,85.95
2023-02-28T20:16:01.909Z,85.96
2023-02-28T20:19:15.738Z,86.19
2023-02-28T20:22:18.823Z,86.11
2023-02-28T20:25:24.363Z,86.53
2023-02-28T20:28:25.151Z,86.77
2023-02-28T20:31:39.316Z,86.82
2023-02-28T20:34:48.118Z,87.18
2023-02-28T20:37:54.478Z,87.38
2023-02-28T20:41:02.891Z,87.40
2023-02-28T20:44:13.534Z,87.35
2023-02-28T20:47:19.121Z,87.80
2023-02-28T20:50:26.155Z,87.95
2023-02-28T20:53:31.186Z,87.82
2023-02-28T20:56:41.151Z,87.79
2023-02-28T20:59:51.114Z,87.61
2023-02-28T21:03:02.176Z,87.40
2023-02-28T21:06:26.107Z,87.28
2023-02-28T21:09:34.695Z,87.16
2023-02-28T21:12:51.427Z,86.94
2023-02-28T21:15:51.484Z,86.94
2023-02-28T21:18:55.353Z,86.72
2023-02-28T21:22:01.855Z,86.63
2023-02-28T21:28:50.626Z,86.51
2023-02-28T21:32:06.478Z,86.56
2023-02-28T21:35:10.295Z,86.42
2023-02-28T21:38:11.230Z,86.42
2023-02-28T21:41:25.698Z,86.82
2023-02-28T21:44:32.222Z,86.61
2023-02-28T21:47:39.492Z,86.58
2023-02-28T21:50:45.343Z,86.39
2023-02-28T21:53:49.916Z,86.66
2023-02-28T21:56:51.297Z,86.24
2023-02-28T21:59:52.261Z,86.30
2023-02-28T22:02:55.270Z,86.42
2023-02-28T22:05:56.491Z,86.28
2023-02-28T22:09:04.002Z,86.23
2023-02-28T22:12:05.652Z,86.40
2023-02-28T22:15:08.373Z,86.37
2023-02-28T22:18:13.527Z,86.63
2023-02-28T22:21:15.238Z,86.57
2023-02-28T22:24:22.476Z,86.54
2023-02-28T22:27:23.271Z,86.63
2023-02-28T22:30:26.643Z,86.84
2023-02-28T22:33:30.539Z,86.92
2023-02-28T22:36:31.620Z,86.73
2023-02-28T22:39:35.311Z,87.05
2023-02-28T22:42:37.268Z,87.26
2023-02-28T22:45:39.460Z,87.70
2023-02-28T22:48:40.310Z,87.57
2023-02-28T22:51:46.372Z,87.50
2023-02-28T22:54:43.454Z,87.78
2023-02-28T22:57:44.274Z,88.23
2023-02-28T23:00:47.370Z,88.18
2023-02-28T23:03:48.412Z,88.24
2023-02-28T23:06:53.344Z,88.64
2023-02-28T23:09:57.374Z,89.01
2023-02-28T23:12:59.560Z,89.13
2023-02-28T23:16:00.484Z,89.03
2023-02-28T23:19:00.352Z,89.31
2023-02-28T23:22:02.452Z,89.75
2023-02-28T23:25:03.367Z,89.64
2023-02-28T23:28:05.329Z,89.98
2023-02-28T23:31:05.445Z,90.40
2023-02-28T23:34:05.403Z,90.26
2023-02-28T23:37:10.680Z,90.38
2023-02-28T23:40:13.630Z,90.69
2023-02-28T23:43:16.328Z,90.95
2023-02-28T23:46:27.791Z,90.74
2023-02-28T23:49:29.384Z,91.22
2023-02-28T23:52:49.389Z,91.19
2023-02-28T23:56:02.121Z,91.33
2023-02-28T23:59:12.909Z,91.45
